Patience Lab — WDH3221 — position and weather

sailwx.info

Track history (hours):
 
Tides and Currents Weather Stations Pressure Air Temp Water Temp Dewpoint Dewpoint Depression Visibility Wind Speed Wind Dir Waves Ship Positions

Patience Lab

Owner: P&R Water Taxi, Honolulu, HI. More information available from US FCC via Universal Licensing System and Coast Guard Vessel Documentation Center.

Last reported at 2018-Jan-20 03:47 UTC. Time now 2018-Jan-23 00:22 UTC.
Position N 29°41' W 092°15'.

Length 48 m; draft 3.2 m.

Type: Cargo ship. MMSI: 367605530.

Date/timePositionNaut miles runAvg speedWind from/ knotsBaromVisibWave heightAir tempDewpointWater temp
2018-Jan-20 03:47N 29°41' W 092°15'2 8.2
2018-Jan-20 03:30N 29°43' W 092°15'4 7.3
2018-Jan-20 03:00N 29°46' W 092°11'3 5.5
2018-Jan-20 02:30N 29°47' W 092°09'0 0.8
2018-Jan-20 01:59N 29°47' W 092°09'0 0.0
2018-Jan-20 01:30N 29°47' W 092°09'0 0.0
2018-Jan-20 01:00N 29°48' W 092°09'0 0.0
2018-Jan-20 00:30N 29°48' W 092°09'0 0.0
2018-Jan-20 00:00N 29°48' W 092°09'0 0.0
2018-Jan-19 23:29N 29°48' W 092°09'0 0.0
2018-Jan-19 23:00N 29°48' W 092°09'0 0.0
2018-Jan-19 22:30N 29°48' W 092°09'0 0.0
2018-Jan-19 22:00N 29°48' W 092°09'0 0.0
2018-Jan-19 21:30N 29°48' W 092°09'0 0.0
2018-Jan-19 20:56N 29°48' W 092°09'0 0.0
2018-Jan-19 20:30N 29°48' W 092°09'0 0.0
2018-Jan-19 20:00N 29°48' W 092°09'0 0.0
2018-Jan-19 19:30N 29°48' W 092°09'0 0.0
2018-Jan-19 19:00N 29°48' W 092°09'2 3.8
2018-Jan-19 18:30N 29°47' W 092°10'1 1.0
2018-Jan-19 18:00N 29°47' W 092°11'0 0.0
2018-Jan-19 17:30N 29°47' W 092°11'0 0.0
2018-Jan-19 17:00N 29°47' W 092°11'0 0.0
2018-Jan-19 16:30N 29°47' W 092°11'0 0.0
2018-Jan-19 16:00N 29°47' W 092°11'0 0.0
2018-Jan-19 15:30N 29°47' W 092°11'0 0.0
2018-Jan-19 15:00N 29°47' W 092°11'2 4.4
2018-Jan-19 14:30N 29°48' W 092°09'0 0.0
2018-Jan-19 14:00N 29°48' W 092°09'0 0.0
2018-Jan-19 13:30N 29°48' W 092°09'0 0.0
2018-Jan-19 13:00N 29°48' W 092°09'0 0.0
2018-Jan-19 12:30N 29°48' W 092°09'0 0.0
2018-Jan-19 12:00N 29°48' W 092°09'0 0.0
2018-Jan-19 11:30N 29°48' W 092°09'0 0.0
2018-Jan-19 11:00N 29°48' W 092°09'0 0.1
2018-Jan-19 10:30N 29°47' W 092°09'1 2.0
2018-Jan-19 10:00N 29°47' W 092°09'3 6.9
2018-Jan-19 09:30N 29°45' W 092°13'3 6.5
2018-Jan-19 09:00N 29°42' W 092°15'2 0.1
2018-Jan-18 01:38N 29°41' W 092°15'1 6.1
2018-Jan-18 01:29N 29°41' W 092°15'3 6.0
2018-Jan-18 01:00N 29°44' W 092°14'6 5.8
2018-Jan-18 00:00N 29°47' W 092°09'0 1.3
2018-Jan-17 23:57N 29°48' W 092°09'  
2018-Jan-12 15:00N 29°47' W 092°11'0 0.0
2018-Jan-12 14:30N 29°47' W 092°11'0 0.0
2018-Jan-12 14:00N 29°47' W 092°11'0 0.0
2018-Jan-12 13:30N 29°47' W 092°11'0 0.0
2018-Jan-12 13:00N 29°47' W 092°11'0 0.0
2018-Jan-12 12:30N 29°47' W 092°11'0 0.0
2018-Jan-12 12:00N 29°47' W 092°11'0 0.0
2018-Jan-12 11:30N 29°47' W 092°11'0 0.0
2018-Jan-12 11:00N 29°47' W 092°11'0 0.0
2018-Jan-12 10:30N 29°47' W 092°11'0 0.0
2018-Jan-12 10:00N 29°47' W 092°11'0 0.0
2018-Jan-12 09:30N 29°47' W 092°11'0 0.0
2018-Jan-12 09:00N 29°47' W 092°11'0 0.0
2018-Jan-12 08:30N 29°47' W 092°11'0 0.0
2018-Jan-12 07:59N 29°47' W 092°11'0 0.0
2018-Jan-12 07:30N 29°47' W 092°11'0 0.0
2018-Jan-12 07:00N 29°47' W 092°11'0 0.0
2018-Jan-12 06:30N 29°47' W 092°11'1 2.0
2018-Jan-12 06:00N 29°47' W 092°10'1 2.3
2018-Jan-12 05:28N 29°47' W 092°09'0 0.0
2018-Jan-12 04:56N 29°47' W 092°09'0 0.0
2018-Jan-12 04:30N 29°47' W 092°09'0 0.0
2018-Jan-12 04:00N 29°47' W 092°09'0 0.0
2018-Jan-12 03:29N 29°47' W 092°09'0 0.0
2018-Jan-12 02:52N 29°47' W 092°09'0 0.0
2018-Jan-12 02:29N 29°47' W 092°09'0 0.0
2018-Jan-12 02:00N 29°47' W 092°09'0 0.0
2018-Jan-12 01:30N 29°47' W 092°09'0 0.0
2018-Jan-12 01:00N 29°47' W 092°09'0 0.1
2018-Jan-12 00:30N 29°47' W 092°09'0 0.1
2018-Jan-12 00:00N 29°47' W 092°09'0 0.1
2018-Jan-11 23:30N 29°47' W 092°09'3 5.7
2018-Jan-11 23:00N 29°46' W 092°11'4 7.2
2018-Jan-11 22:30N 29°44' W 092°15'3 0.2
2018-Jan-11 03:00N 29°41' W 092°15'2 4.9
2018-Jan-11 02:30N 29°43' W 092°15'3 5.3
2018-Jan-11 02:00N 29°45' W 092°13'3 5.1
2018-Jan-11 01:30N 29°47' W 092°10'2 3.4
2018-Jan-11 01:00N 29°48' W 092°09'0 0.1
2018-Jan-11 00:30N 29°47' W 092°09'0 0.1
2018-Jan-11 00:00N 29°48' W 092°09'0 0.1
2018-Jan-10 23:30N 29°47' W 092°09'0 0.0
2018-Jan-10 23:00N 29°47' W 092°09'1 2.9
2018-Jan-10 22:30N 29°47' W 092°10'1 1.7
2018-Jan-10 22:00N 29°47' W 092°11'0 0.0
2018-Jan-10 21:30N 29°47' W 092°11'0 0.0
2018-Jan-10 21:00N 29°47' W 092°11'0 0.0
2018-Jan-10 20:30N 29°47' W 092°11'0 0.0
2018-Jan-10 20:00N 29°47' W 092°11'0 0.0
2018-Jan-10 19:30N 29°47' W 092°11'0 0.0
2018-Jan-10 19:00N 29°47' W 092°11'0 0.0
2018-Jan-10 18:30N 29°47' W 092°11'0 0.0
2018-Jan-10 18:00N 29°47' W 092°11'0 0.0
2018-Jan-10 17:30N 29°47' W 092°11'0 0.0
2018-Jan-10 17:00N 29°47' W 092°11'0 0.0
2018-Jan-10 16:30N 29°47' W 092°11'0 0.0
2018-Jan-10 16:00N 29°47' W 092°11'0 0.0
2018-Jan-10 15:30N 29°47' W 092°11'0 0.0
2018-Jan-10 15:00N 29°47' W 092°11'0 0.0
2018-Jan-10 14:30N 29°47' W 092°11'0 0.0
2018-Jan-10 14:00N 29°47' W 092°11'0 0.0
2018-Jan-10 13:30N 29°47' W 092°11'0 0.0
2018-Jan-10 13:00N 29°47' W 092°11'0 0.0
2018-Jan-10 12:30N 29°47' W 092°11'0 0.0
2018-Jan-10 12:00N 29°47' W 092°11'0 0.0
2018-Jan-10 11:28N 29°47' W 092°11'0 0.0
2018-Jan-10 11:00N 29°47' W 092°11'0 0.0
2018-Jan-10 10:30N 29°47' W 092°11'0 0.1
2018-Jan-10 10:00N 29°47' W 092°11'0 0.7
2018-Jan-10 09:30N 29°47' W 092°11'2 3.4
2018-Jan-10 09:00N 29°45' W 092°12'3 6.8
2018-Jan-10 08:30N 29°43' W 092°15'  
Track history (hours):
 
Tides and Currents Weather Stations Pressure Air Temp Water Temp Dewpoint Dewpoint Depression Visibility Wind Speed Wind Dir Waves Ship Positions

Patience Lab

Owner: P&R Water Taxi, Honolulu, HI. More information available from US FCC via Universal Licensing System and Coast Guard Vessel Documentation Center.

Last reported at 2018-Jan-20 03:47 UTC. Time now 2018-Jan-23 00:22 UTC.
Position N 29°41' W 092°15'.

Length 48 m; draft 3.2 m.

Type: Cargo ship. MMSI: 367605530.

Date/timePositionNaut miles runAvg speedWind from/ knotsBaromVisibWave heightAir tempDewpointWater temp
2018-Jan-20 03:47N 29°41' W 092°15'2 8.2
2018-Jan-20 03:30N 29°43' W 092°15'4 7.3
2018-Jan-20 03:00N 29°46' W 092°11'3 5.5
2018-Jan-20 02:30N 29°47' W 092°09'0 0.8
2018-Jan-20 01:59N 29°47' W 092°09'0 0.0
2018-Jan-20 01:30N 29°47' W 092°09'0 0.0
2018-Jan-20 01:00N 29°48' W 092°09'0 0.0
2018-Jan-20 00:30N 29°48' W 092°09'0 0.0
2018-Jan-20 00:00N 29°48' W 092°09'0 0.0
2018-Jan-19 23:29N 29°48' W 092°09'0 0.0
2018-Jan-19 23:00N 29°48' W 092°09'0 0.0
2018-Jan-19 22:30N 29°48' W 092°09'0 0.0
2018-Jan-19 22:00N 29°48' W 092°09'0 0.0
2018-Jan-19 21:30N 29°48' W 092°09'0 0.0
2018-Jan-19 20:56N 29°48' W 092°09'0 0.0
2018-Jan-19 20:30N 29°48' W 092°09'0 0.0
2018-Jan-19 20:00N 29°48' W 092°09'0 0.0
2018-Jan-19 19:30N 29°48' W 092°09'0 0.0
2018-Jan-19 19:00N 29°48' W 092°09'2 3.8
2018-Jan-19 18:30N 29°47' W 092°10'1 1.0
2018-Jan-19 18:00N 29°47' W 092°11'0 0.0
2018-Jan-19 17:30N 29°47' W 092°11'0 0.0
2018-Jan-19 17:00N 29°47' W 092°11'0 0.0
2018-Jan-19 16:30N 29°47' W 092°11'0 0.0
2018-Jan-19 16:00N 29°47' W 092°11'0 0.0
2018-Jan-19 15:30N 29°47' W 092°11'0 0.0
2018-Jan-19 15:00N 29°47' W 092°11'2 4.4
2018-Jan-19 14:30N 29°48' W 092°09'0 0.0
2018-Jan-19 14:00N 29°48' W 092°09'0 0.0
2018-Jan-19 13:30N 29°48' W 092°09'0 0.0
2018-Jan-19 13:00N 29°48' W 092°09'0 0.0
2018-Jan-19 12:30N 29°48' W 092°09'0 0.0
2018-Jan-19 12:00N 29°48' W 092°09'0 0.0
2018-Jan-19 11:30N 29°48' W 092°09'0 0.0
2018-Jan-19 11:00N 29°48' W 092°09'0 0.1
2018-Jan-19 10:30N 29°47' W 092°09'1 2.0
2018-Jan-19 10:00N 29°47' W 092°09'3 6.9
2018-Jan-19 09:30N 29°45' W 092°13'3 6.5
2018-Jan-19 09:00N 29°42' W 092°15'2 0.1
2018-Jan-18 01:38N 29°41' W 092°15'1 6.1
2018-Jan-18 01:29N 29°41' W 092°15'3 6.0
2018-Jan-18 01:00N 29°44' W 092°14'6 5.8
2018-Jan-18 00:00N 29°47' W 092°09'0 1.3
2018-Jan-17 23:57N 29°48' W 092°09'  
2018-Jan-12 15:00N 29°47' W 092°11'0 0.0
2018-Jan-12 14:30N 29°47' W 092°11'0 0.0
2018-Jan-12 14:00N 29°47' W 092°11'0 0.0
2018-Jan-12 13:30N 29°47' W 092°11'0 0.0
2018-Jan-12 13:00N 29°47' W 092°11'0 0.0
2018-Jan-12 12:30N 29°47' W 092°11'0 0.0
2018-Jan-12 12:00N 29°47' W 092°11'0 0.0
2018-Jan-12 11:30N 29°47' W 092°11'0 0.0
2018-Jan-12 11:00N 29°47' W 092°11'0 0.0
2018-Jan-12 10:30N 29°47' W 092°11'0 0.0
2018-Jan-12 10:00N 29°47' W 092°11'0 0.0
2018-Jan-12 09:30N 29°47' W 092°11'0 0.0
2018-Jan-12 09:00N 29°47' W 092°11'0 0.0
2018-Jan-12 08:30N 29°47' W 092°11'0 0.0
2018-Jan-12 07:59N 29°47' W 092°11'0 0.0
2018-Jan-12 07:30N 29°47' W 092°11'0 0.0
2018-Jan-12 07:00N 29°47' W 092°11'0 0.0
2018-Jan-12 06:30N 29°47' W 092°11'1 2.0
2018-Jan-12 06:00N 29°47' W 092°10'1 2.3
2018-Jan-12 05:28N 29°47' W 092°09'0 0.0
2018-Jan-12 04:56N 29°47' W 092°09'0 0.0
2018-Jan-12 04:30N 29°47' W 092°09'0 0.0
2018-Jan-12 04:00N 29°47' W 092°09'0 0.0
2018-Jan-12 03:29N 29°47' W 092°09'0 0.0
2018-Jan-12 02:52N 29°47' W 092°09'0 0.0
2018-Jan-12 02:29N 29°47' W 092°09'0 0.0
2018-Jan-12 02:00N 29°47' W 092°09'0 0.0
2018-Jan-12 01:30N 29°47' W 092°09'0 0.0
2018-Jan-12 01:00N 29°47' W 092°09'0 0.1
2018-Jan-12 00:30N 29°47' W 092°09'0 0.1
2018-Jan-12 00:00N 29°47' W 092°09'0 0.1
2018-Jan-11 23:30N 29°47' W 092°09'3 5.7
2018-Jan-11 23:00N 29°46' W 092°11'4 7.2
2018-Jan-11 22:30N 29°44' W 092°15'3 0.2
2018-Jan-11 03:00N 29°41' W 092°15'2 4.9
2018-Jan-11 02:30N 29°43' W 092°15'3 5.3
2018-Jan-11 02:00N 29°45' W 092°13'3 5.1
2018-Jan-11 01:30N 29°47' W 092°10'2 3.4
2018-Jan-11 01:00N 29°48' W 092°09'0 0.1
2018-Jan-11 00:30N 29°47' W 092°09'0 0.1
2018-Jan-11 00:00N 29°48' W 092°09'0 0.1
2018-Jan-10 23:30N 29°47' W 092°09'0 0.0
2018-Jan-10 23:00N 29°47' W 092°09'1 2.9
2018-Jan-10 22:30N 29°47' W 092°10'1 1.7
2018-Jan-10 22:00N 29°47' W 092°11'0 0.0
2018-Jan-10 21:30N 29°47' W 092°11'0 0.0
2018-Jan-10 21:00N 29°47' W 092°11'0 0.0
2018-Jan-10 20:30N 29°47' W 092°11'0 0.0
2018-Jan-10 20:00N 29°47' W 092°11'0 0.0
2018-Jan-10 19:30N 29°47' W 092°11'0 0.0
2018-Jan-10 19:00N 29°47' W 092°11'0 0.0
2018-Jan-10 18:30N 29°47' W 092°11'0 0.0
2018-Jan-10 18:00N 29°47' W 092°11'0 0.0
2018-Jan-10 17:30N 29°47' W 092°11'0 0.0
2018-Jan-10 17:00N 29°47' W 092°11'0 0.0
2018-Jan-10 16:30N 29°47' W 092°11'0 0.0
2018-Jan-10 16:00N 29°47' W 092°11'0 0.0
2018-Jan-10 15:30N 29°47' W 092°11'0 0.0
2018-Jan-10 15:00N 29°47' W 092°11'0 0.0
2018-Jan-10 14:30N 29°47' W 092°11'0 0.0
2018-Jan-10 14:00N 29°47' W 092°11'0 0.0
2018-Jan-10 13:30N 29°47' W 092°11'0 0.0
2018-Jan-10 13:00N 29°47' W 092°11'0 0.0
2018-Jan-10 12:30N 29°47' W 092°11'0 0.0
2018-Jan-10 12:00N 29°47' W 092°11'0 0.0
2018-Jan-10 11:28N 29°47' W 092°11'0 0.0
2018-Jan-10 11:00N 29°47' W 092°11'0 0.0
2018-Jan-10 10:30N 29°47' W 092°11'0 0.1
2018-Jan-10 10:00N 29°47' W 092°11'0 0.7
2018-Jan-10 09:30N 29°47' W 092°11'2 3.4
2018-Jan-10 09:00N 29°45' W 092°12'3 6.8
2018-Jan-10 08:30N 29°43' W 092°15'  

Dump ship's entire track history